Time;durP1;ratioP1;P1;durP2;ratioP2;P2;SDS_P1;SDS_P2;PMS_P1;PMS_P2;Temp;Humidity;BMP_temperature;BMP_pressure;BME280_temperature;BME280_humidity;BME280_pressure;Samples;Min_cycle;Max_cycle;Signal;HPM_P1;HPM_P2
2022/12/17 13:05:54;;;;;;;45.08;17.42;;;;;;;-0.50;92.28;101652.69;8295835;28;20034;-56
2022/12/17 13:08:20;;;;;;;52.55;18.98;;;;;;;-0.46;92.06;101664.97;8304481;28;20065;-55
2022/12/17 13:12:28;;;;;;;49.75;19.55;;;;;;;-0.43;93.03;101651.59;8318887;28;20505;-53
2022/12/17 13:16:54;;;;;;;47.05;18.13;;;;;;;-0.46;92.14;101641.06;8300950;28;20474;-56
2022/12/17 13:20:58;;;;;;;51.47;19.80;;;;;;;-0.54;92.05;101652.81;8312473;28;20033;-56
2022/12/17 13:25:15;;;;;;;;;;;;;;;-0.59;93.01;101655.59;8305441;28;20555;-53
2022/12/17 13:29:34;;;;;;;56.28;20.83;;;;;;;-0.55;93.55;101641.31;8293994;28;19968;-52
2022/12/17 13:33:48;;;;;;;49.25;18.85;;;;;;;-0.48;93.07;101648.22;8305382;28;20466;-56
2022/12/17 13:38:07;;;;;;;47.17;18.33;;;;;;;-0.28;93.09;101635.22;8284775;28;20525;-55
2022/12/17 13:42:49;;;;;;;40.10;17.33;;;;;;;-0.39;92.10;101631.13;8288512;28;20419;-55
2022/12/17 13:46:52;;;;;;;50.33;21.38;;;;;;;-0.44;92.93;101633.94;8275644;28;20664;-52
2022/12/17 13:50:55;;;;;;;52.65;19.25;;;;;;;-0.34;92.93;101632.72;8265588;28;20038;-55
2022/12/17 13:55:17;;;;;;;36.90;17.90;;;;;;;-0.38;92.41;101622.25;8288643;28;20038;-54
2022/12/17 13:59:20;;;;;;;44.92;17.75;;;;;;;-0.40;92.08;101624.94;8277811;28;20038;-54
2022/12/17 14:03:21;;;;;;;45.87;17.33;;;;;;;-0.40;92.79;101630.25;8288962;28;20554;-56
2022/12/17 14:07:24;;;;;;;46.30;18.38;;;;;;;-0.37;93.46;101635.47;8286855;28;20094;-54
2022/12/17 14:12:26;;;;;;;38.60;17.08;;;;;;;-0.36;92.40;101631.91;8285149;28;20040;-55
2022/12/17 14:15:51;;;;;;;42.05;16.70;;;;;;;-0.45;92.26;101637.47;8281513;28;20050;-52
2022/12/17 14:20:05;;;;;;;39.65;18.17;;;;;;;-0.44;92.56;101628.63;8269485;28;20056;-53
2022/12/17 14:24:11;;;;;;;36.63;16.45;;;;;;;-0.45;92.33;101637.47;8268061;28;20057;-55
2022/12/17 14:28:24;;;;;;;41.50;18.48;;;;;;;-0.48;92.79;101632.28;8274317;28;20042;-54
2022/12/17 14:32:32;;;;;;;38.17;15.67;;;;;;;-0.49;92.62;101646.47;8283001;28;20068;-54
2022/12/17 14:36:35;;;;;;;45.63;17.27;;;;;;;-0.44;92.65;101644.56;8285613;28;20034;-53
2022/12/17 14:40:36;;;;;;;43.70;17.33;;;;;;;-0.52;93.20;101649.19;8279153;28;20159;-55
2022/12/17 14:44:47;;;;;;;44.30;18.50;;;;;;;-0.54;92.94;101648.41;8283021;28;20046;-56
2022/12/17 14:48:59;;;;;;;44.03;16.88;;;;;;;-0.66;93.71;101651.38;8284277;28;20053;-52
2022/12/17 14:53:03;;;;;;;36.85;15.82;;;;;;;-0.70;93.50;101657.69;8267710;28;20061;-55
2022/12/17 14:57:04;;;;;;;55.27;22.60;;;;;;;-0.75;93.38;101649.00;8273302;28;20140;-54
2022/12/17 15:01:11;;;;;;;59.25;25.90;;;;;;;-0.85;93.70;101652.78;8285408;28;20050;-52
2022/12/17 15:05:14;;;;;;;60.38;26.35;;;;;;;-0.92;93.97;101660.94;8288204;28;20406;-55
2022/12/17 15:09:14;;;;;;;59.05;23.08;;;;;;;-0.95;94.67;101661.91;8286438;28;20042;-55
2022/12/17 15:13:15;;;;;;;52.20;21.40;;;;;;;-0.99;94.58;101665.56;8284327;28;20558;-55
2022/12/17 15:17:16;;;;;;;47.08;20.08;;;;;;;-1.11;95.00;101665.88;8282340;28;20038;-54
2022/12/17 15:21:18;;;;;;;45.83;18.02;;;;;;;-1.24;95.91;101669.78;8282669;28;20050;-55
2022/12/17 15:25:19;;;;;;;45.28;21.00;;;;;;;-1.37;96.71;101670.97;8265047;28;20100;-55
2022/12/17 15:29:19;;;;;;;45.05;19.13;;;;;;;-1.42;96.32;101670.22;8272963;28;20038;-56
2022/12/17 15:33:20;;;;;;;43.92;20.95;;;;;;;-1.52;96.28;101668.72;8264358;28;20038;-51
2022/12/17 15:37:20;;;;;;;45.45;21.35;;;;;;;-1.57;96.11;101667.06;8284802;28;20033;-52
2022/12/17 15:45:44;;;;;;;46.72;19.20;;;;;;;-1.67;95.92;101677.03;8277122;28;20499;-53
2022/12/17 15:49:45;;;;;;;57.83;23.00;;;;;;;-1.77;96.42;101677.28;8281822;28;20527;-52
2022/12/17 15:53:46;;;;;;;54.35;21.90;;;;;;;-1.83;96.36;101688.84;8284620;28;20450;-52
2022/12/17 15:57:47;;;;;;;42.33;19.13;;;;;;;-1.95;97.30;101682.97;8280311;28;20413;-52
2022/12/17 16:01:47;;;;;;;50.20;21.13;;;;;;;-1.96;97.61;101682.09;8263087;28;20037;-52
2022/12/17 16:05:48;;;;;;;46.13;19.45;;;;;;;-2.00;97.11;101672.47;8254732;28;20050;-52
2022/12/17 16:09:48;;;;;;;52.42;19.50;;;;;;;-2.11;98.26;101688.59;8283796;28;20061;-54
2022/12/17 16:13:53;;;;;;;50.00;19.83;;;;;;;-2.20;98.53;101687.91;8285776;28;20129;-52
2022/12/17 16:17:55;;;;;;;48.38;19.48;;;;;;;-2.23;99.37;101687.97;8275828;28;20089;-54
2022/12/17 16:21:55;;;;;;;58.10;21.55;;;;;;;-2.31;99.19;101689.94;8261881;28;20130;-54
2022/12/17 16:25:58;;;;;;;57.42;21.98;;;;;;;-2.32;99.39;101697.00;8259607;28;20176;-52
2022/12/17 16:29:59;;;;;;;60.67;23.77;;;;;;;-2.38;99.44;101699.78;8281914;28;20144;-53
2022/12/17 16:33:59;;;;;;;48.42;21.27;;;;;;;-2.26;99.64;101699.53;8282668;28;20101;-53
2022/12/17 16:38:00;;;;;;;43.10;19.02;;;;;;;-2.26;98.99;101704.81;8271866;28;20030;-52
2022/12/17 16:42:00;;;;;;;42.90;19.63;;;;;;;-2.38;98.33;101704.22;8279295;28;20516;-56
2022/12/17 16:46:01;;;;;;;44.95;18.90;;;;;;;-2.48;99.29;101702.63;8284101;28;20057;-55
2022/12/17 16:50:02;;;;;;;42.97;18.70;;;;;;;-2.55;99.70;101711.59;8276891;28;20495;-52
2022/12/17 16:54:06;;;;;;;47.50;20.25;;;;;;;-2.61;100.00;101709.06;8267408;28;20038;-51
2022/12/17 16:58:07;;;;;;;45.38;18.52;;;;;;;-2.63;99.66;101714.38;8266077;28;20061;-54
2022/12/17 17:02:13;;;;;;;47.40;17.63;;;;;;;-2.66;100.00;101718.84;8284448;28;20045;-54
2022/12/17 17:06:14;;;;;;;57.38;21.73;;;;;;;-2.72;100.00;101724.25;8284688;28;20653;-54
2022/12/17 17:10:15;;;;;;;52.50;20.92;;;;;;;-2.84;100.00;101729.81;8281121;28;20038;-55
2022/12/17 17:14:15;;;;;;;52.67;19.65;;;;;;;-2.91;100.00;101725.50;8288793;28;20061;-55
2022/12/17 17:18:16;;;;;;;50.33;20.67;;;;;;;-3.08;100.00;101731.06;8289318;28;20187;-51
2022/12/17 17:22:17;;;;;;;49.33;19.27;;;;;;;-3.14;100.00;101736.47;8288959;28;20041;-52
2022/12/17 17:26:17;;;;;;;46.92;20.77;;;;;;;-3.17;100.00;101735.66;8289133;28;20041;-54
2022/12/17 17:30:18;;;;;;;54.60;22.10;;;;;;;-3.18;100.00;101718.91;8275534;28;20035;-55
2022/12/17 17:34:18;;;;;;;49.25;21.15;;;;;;;-3.22;100.00;101733.09;8278406;28;20046;-55
2022/12/17 17:38:19;;;;;;;88.40;33.63;;;;;;;-3.32;100.00;101730.63;8266727;28;20064;-53
2022/12/17 17:42:19;;;;;;;65.97;25.35;;;;;;;-3.40;100.00;101733.38;8285464;28;20133;-54
2022/12/17 17:46:20;;;;;;;55.75;25.52;;;;;;;-3.51;100.00;101723.88;8274690;28;20533;-52
2022/12/17 17:50:21;;;;;;;75.63;30.55;;;;;;;-3.60;100.00;101739.88;8275366;28;20096;-53
2022/12/17 17:54:21;;;;;;;71.68;27.33;;;;;;;-3.60;100.00;101732.81;8279414;28;20177;-54
2022/12/17 17:58:22;;;;;;;67.75;26.23;;;;;;;-3.66;100.00;101732.03;8272306;28;20641;-54
2022/12/17 18:02:22;;;;;;;58.42;24.23;;;;;;;-3.71;100.00;101741.78;8272017;28;20060;-52
2022/12/17 18:06:23;;;;;;;69.43;27.15;;;;;;;-3.72;100.00;101745.34;8284946;28;20062;-52
2022/12/17 18:10:24;;;;;;;65.15;25.25;;;;;;;-3.75;100.00;101745.38;8280011;28;20318;-52
2022/12/17 18:14:24;;;;;;;63.75;25.08;;;;;;;-3.81;100.00;101748.09;8281363;28;20038;-52
2022/12/17 18:18:25;;;;;;;62.85;27.67;;;;;;;-3.85;100.00;101749.03;8275250;28;20060;-52
2022/12/17 18:22:27;;;;;;;57.40;25.23;;;;;;;-3.92;100.00;101736.78;8275424;28;21003;-52
2022/12/17 18:26:30;;;;;;;68.40;25.70;;;;;;;-3.98;100.00;101742.16;8270606;28;20125;-55
2022/12/17 18:30:30;;;;;;;63.10;24.97;;;;;;;-4.04;100.00;101732.56;8274701;28;20061;-53
2022/12/17 18:34:32;;;;;;;61.55;25.67;;;;;;;-4.11;100.00;101750.22;8259757;28;20117;-52
2022/12/17 18:38:33;;;;;;;68.28;30.60;;;;;;;-4.20;100.00;101746.84;8275800;28;20065;-55
2022/12/17 18:43:35;;;;;;;58.10;23.45;;;;;;;-4.28;100.00;101749.59;8280320;28;20149;-52
2022/12/17 18:46:55;;;;;;;77.53;29.48;;;;;;;-4.29;100.00;101744.31;8278907;28;20053;-54
2022/12/17 18:50:55;;;;;;;70.47;29.38;;;;;;;-4.28;100.00;101744.31;8273412;28;20034;-51
2022/12/17 18:54:56;;;;;;;78.80;30.15;;;;;;;-4.25;100.00;101744.25;8285652;28;20250;-56
2022/12/17 18:58:57;;;;;;;71.28;26.30;;;;;;;-4.28;100.00;101744.31;8276959;28;20557;-54
2022/12/17 19:02:57;;;;;;;64.43;25.65;;;;;;;-4.31;100.00;101754.91;8280408;28;20038;-53
2022/12/17 19:06:58;;;;;;;57.60;22.13;;;;;;;-4.29;100.00;101771.59;8282341;28;20048;-52
2022/12/17 19:11:03;;;;;;;71.13;26.48;;;;;;;-4.24;100.00;101772.41;8283685;28;20048;-54
2022/12/17 19:15:05;;;;;;;69.47;24.98;;;;;;;-4.19;100.00;101765.31;8283246;28;20046;-52
2022/12/17 19:19:05;;;;;;;53.38;21.38;;;;;;;-4.16;100.00;101765.28;8280867;28;20180;-56
2022/12/17 19:23:06;;;;;;;65.07;25.13;;;;;;;-4.32;100.00;101769.00;8283631;28;20042;-55
2022/12/17 19:27:07;;;;;;;66.75;25.23;;;;;;;-4.36;100.00;101771.69;8283788;28;20060;-54
2022/12/17 19:31:08;;;;;;;66.80;26.17;;;;;;;-4.44;100.00;101769.13;8287578;28;20124;-53
2022/12/17 19:35:09;;;;;;;73.85;26.38;;;;;;;-4.44;100.00;101778.78;8285819;28;20037;-55
2022/12/17 19:39:13;;;;;;;76.90;30.63;;;;;;;-4.47;100.00;101779.72;8283520;28;20614;-55
2022/12/17 19:43:13;;;;;;;82.05;31.23;;;;;;;-4.53;100.00;101778.88;8274839;28;20093;-54
2022/12/17 19:47:14;;;;;;;70.65;29.13;;;;;;;-4.63;100.00;101775.47;8284223;28;20432;-54
2022/12/17 19:51:18;;;;;;;72.85;29.02;;;;;;;-4.61;100.00;101776.31;8287875;28;20049;-54
2022/12/17 19:55:20;;;;;;;;;;;;;;;-4.58;100.00;101780.69;8270594;28;20125;-52
2022/12/17 19:59:20;;;;;;;65.80;27.23;;;;;;;-4.50;100.00;101781.50;8288302;28;20382;-54
2022/12/17 20:03:21;;;;;;;71.13;28.90;;;;;;;-4.60;100.00;101790.41;8289406;28;20486;-52
2022/12/17 20:07:21;;;;;;;96.03;38.83;;;;;;;-4.60;100.00;101791.25;8275797;28;20061;-54
2022/12/17 20:11:37;;;;;;;79.68;30.50;;;;;;;-4.59;100.00;101800.94;8273349;28;20057;-53
2022/12/17 20:15:38;;;;;;;73.55;28.02;;;;;;;-4.58;100.00;101801.78;8283412;28;20030;-53
2022/12/17 20:19:38;;;;;;;72.35;29.05;;;;;;;-4.58;100.00;101807.94;8255953;28;20551;-53
2022/12/17 20:23:39;;;;;;;74.20;31.35;;;;;;;-4.58;100.00;101813.22;8276445;28;20037;-55
2022/12/17 20:27:40;;;;;;;95.43;40.95;;;;;;;-4.60;100.00;101820.28;8287962;28;20042;-56
2022/12/17 20:31:42;;;;;;;79.55;32.92;;;;;;;-4.61;100.00;101813.25;8287853;28;20046;-55
2022/12/17 20:35:42;;;;;;;86.97;34.47;;;;;;;-4.65;100.00;101827.38;8288456;28;20038;-53
2022/12/17 20:39:43;;;;;;;67.03;30.98;;;;;;;-4.73;100.00;101834.47;8287993;28;20129;-55
2022/12/17 20:43:43;;;;;;;80.82;31.50;;;;;;;-4.81;100.00;101836.31;8288824;28;20349;-55
2022/12/17 20:47:44;;;;;;;81.10;31.42;;;;;;;-4.70;100.00;101839.72;8288400;28;20418;-55
2022/12/17 20:51:45;;;;;;;75.20;29.05;;;;;;;-4.68;100.00;101829.16;8295417;28;20037;-52
2022/12/17 20:55:46;;;;;;;64.18;26.52;;;;;;;-4.68;100.00;101831.78;8301610;28;20037;-56
2022/12/17 20:59:46;;;;;;;65.40;27.92;;;;;;;-4.68;100.00;101837.06;8280323;28;20439;-55
2022/12/17 21:03:49;;;;;;;68.80;27.45;;;;;;;-4.72;100.00;101836.25;8275289;28;20038;-52
2022/12/17 21:07:51;;;;;;;65.40;25.40;;;;;;;-4.67;100.00;101817.72;8269363;28;20470;-52
2022/12/17 21:11:51;;;;;;;58.33;27.23;;;;;;;-4.67;100.00;101815.09;8288698;28;20492;-53
2022/12/17 21:15:52;;;;;;;62.72;26.10;;;;;;;-4.69;100.00;101812.47;8293035;28;20510;-54
2022/12/17 21:19:52;;;;;;;57.53;25.42;;;;;;;-4.75;100.00;101812.53;8293018;28;20038;-54
2022/12/17 21:23:54;;;;;;;61.67;24.38;;;;;;;-4.76;100.00;101813.41;8293113;28;20108;-54
2022/12/17 21:27:55;;;;;;;69.20;27.52;;;;;;;-4.80;100.00;101823.97;8293002;28;20081;-54
2022/12/17 21:31:55;;;;;;;63.13;26.92;;;;;;;-4.91;100.00;101828.50;8292726;28;20104;-56
2022/12/17 21:35:58;;;;;;;71.20;28.95;;;;;;;-4.97;100.00;101829.38;8289365;28;20030;-54
2022/12/17 21:40:00;;;;;;;69.70;26.33;;;;;;;-4.96;100.00;101814.47;8289436;28;20509;-54
2022/12/17 21:44:04;;;;;;;65.22;26.88;;;;;;;-5.02;100.00;101815.41;8281667;28;20042;-54
2022/12/17 21:48:08;;;;;;;55.80;21.90;;;;;;;-4.93;100.00;101819.72;8292097;28;20046;-54
2022/12/17 21:52:09;;;;;;;64.57;23.17;;;;;;;-4.93;100.00;101825.88;8291835;28;20063;-54
2022/12/17 21:56:12;;;;;;;56.53;22.48;;;;;;;-4.85;100.00;101833.72;8286405;28;20038;-54
2022/12/17 22:00:14;;;;;;;60.30;23.85;;;;;;;-4.80;100.00;101823.97;8286701;28;20068;-52
2022/12/17 22:04:15;;;;;;;65.03;23.58;;;;;;;-4.78;100.00;101830.13;8290800;28;20096;-52
2022/12/17 22:08:15;;;;;;;60.00;21.50;;;;;;;-4.74;100.00;101838.00;8291258;28;20047;-56
2022/12/17 22:16:45;;;;;;;62.33;22.40;;;;;;;-4.75;100.00;101835.38;8288956;28;20548;-51
2022/12/17 22:20:56;;;;;;;49.35;20.98;;;;;;;-4.76;100.00;101838.91;8289239;28;20442;-54
2022/12/17 22:24:57;;;;;;;55.58;22.42;;;;;;;-4.78;100.00;101849.47;8285120;28;20038;-52
2022/12/17 22:28:58;;;;;;;51.53;19.83;;;;;;;-4.74;100.00;101852.94;8288669;28;20030;-54
2022/12/17 22:33:01;;;;;;;56.70;21.55;;;;;;;-4.80;100.00;101847.72;8282622;28;20286;-55
2022/12/17 22:37:01;;;;;;;46.08;19.63;;;;;;;-4.86;100.00;101843.38;8287075;28;20056;-55
2022/12/17 22:41:04;;;;;;;52.88;20.63;;;;;;;-4.91;100.00;101854.84;8287796;28;20251;-53
2022/12/17 22:45:05;;;;;;;55.17;21.35;;;;;;;-4.84;100.00;101856.56;8291080;28;20503;-52
2022/12/17 22:49:07;;;;;;;62.50;24.20;;;;;;;-4.80;100.00;101853.88;8290688;28;20514;-53
2022/12/17 22:53:08;;;;;;;60.47;24.35;;;;;;;-4.79;100.00;101849.50;8291195;28;20045;-55
2022/12/17 22:57:08;;;;;;;50.80;22.63;;;;;;;-4.78;100.00;101852.13;8292598;28;20045;-55
2022/12/17 23:01:09;;;;;;;62.25;24.17;;;;;;;-4.86;100.00;101867.09;8288384;28;20061;-52
2022/12/17 23:05:10;;;;;;;55.58;24.17;;;;;;;-4.87;100.00;101873.28;8290542;28;20626;-55
2022/12/17 23:09:11;;;;;;;63.95;23.50;;;;;;;-4.91;100.00;101873.31;8291345;28;20523;-55
2022/12/17 23:13:12;;;;;;;67.03;25.15;;;;;;;-4.98;100.00;101874.22;8290851;28;20121;-56
2022/12/17 23:17:12;;;;;;;63.00;25.33;;;;;;;-5.04;100.00;101869.00;8291875;28;20038;-52
2022/12/17 23:21:19;;;;;;;65.03;26.58;;;;;;;-5.10;100.00;101858.47;8284337;28;20071;-54
2022/12/17 23:25:20;;;;;;;58.15;25.25;;;;;;;-5.18;100.00;101850.66;8275983;28;20129;-55
2022/12/17 23:29:21;;;;;;;65.05;25.30;;;;;;;-5.27;100.00;101834.91;8288092;28;20042;-52
2022/12/17 23:33:22;;;;;;;57.55;23.13;;;;;;;-5.25;100.00;101848.94;8288489;28;20120;-52
2022/12/17 23:37:22;;;;;;;62.33;25.42;;;;;;;-5.23;100.00;101841.91;8286837;28;20088;-54
2022/12/17 23:41:27;;;;;;;65.35;25.58;;;;;;;-5.22;100.00;101848.06;8288616;28;20041;-54
2022/12/17 23:45:27;;;;;;;54.38;21.50;;;;;;;-5.18;100.00;101850.66;8291187;28;20070;-56
2022/12/17 23:49:28;;;;;;;66.53;24.52;;;;;;;-5.20;100.00;101852.41;8291099;28;20037;-52
2022/12/17 23:53:30;;;;;;;68.03;24.65;;;;;;;-5.18;100.00;101850.66;8291184;28;20084;-54
2022/12/17 23:57:31;;;;;;;56.22;23.10;;;;;;;-5.10;100.00;101854.09;8290507;28;20034;-55
